sensor_id;sensor_type;location;lat;lon;timestamp;P1;durP1;ratioP1;P2;durP2;ratioP2
79204;SDS011;68632;47.512;19.104;2023-05-25T00:00:35;12.27;;;10.25;;
79204;SDS011;68632;47.512;19.104;2023-05-25T00:01:47;12.48;;;9.80;;
79204;SDS011;68632;47.512;19.104;2023-05-25T00:02:50;14.05;;;11.43;;
79204;SDS011;68632;47.512;19.104;2023-05-25T00:03:55;12.00;;;10.30;;
79204;SDS011;68632;47.512;19.104;2023-05-25T00:04:57;13.45;;;10.35;;
79204;SDS011;68632;47.512;19.104;2023-05-25T00:06:01;15.10;;;10.38;;
79204;SDS011;68632;47.512;19.104;2023-05-25T00:07:03;12.52;;;9.75;;
79204;SDS011;68632;47.512;19.104;2023-05-25T00:08:06;15.13;;;10.95;;
79204;SDS011;68632;47.512;19.104;2023-05-25T00:09:08;16.60;;;12.45;;
79204;SDS011;68632;47.512;19.104;2023-05-25T00:10:10;12.90;;;10.13;;
79204;SDS011;68632;47.512;19.104;2023-05-25T00:11:13;12.48;;;10.60;;
79204;SDS011;68632;47.512;19.104;2023-05-25T00:12:15;13.18;;;9.70;;
79204;SDS011;68632;47.512;19.104;2023-05-25T00:13:17;13.10;;;10.68;;
79204;SDS011;68632;47.512;19.104;2023-05-25T00:14:19;12.68;;;9.70;;
79204;SDS011;68632;47.512;19.104;2023-05-25T00:15:22;14.15;;;11.20;;
79204;SDS011;68632;47.512;19.104;2023-05-25T00:16:24;12.85;;;10.82;;
79204;SDS011;68632;47.512;19.104;2023-05-25T00:17:26;12.27;;;10.50;;
79204;SDS011;68632;47.512;19.104;2023-05-25T00:18:31;14.32;;;10.30;;
79204;SDS011;68632;47.512;19.104;2023-05-25T00:19:38;12.43;;;9.82;;
79204;SDS011;68632;47.512;19.104;2023-05-25T00:20:43;11.40;;;10.20;;
79204;SDS011;68632;47.512;19.104;2023-05-25T00:21:45;12.85;;;10.55;;
79204;SDS011;68632;47.512;19.104;2023-05-25T00:22:49;13.98;;;10.43;;
79204;SDS011;68632;47.512;19.104;2023-05-25T00:23:52;15.05;;;11.18;;
79204;SDS011;68632;47.512;19.104;2023-05-25T00:24:55;12.30;;;10.60;;
79204;SDS011;68632;47.512;19.104;2023-05-25T00:25:57;12.85;;;10.57;;
79204;SDS011;68632;47.512;19.104;2023-05-25T00:27:00;17.95;;;11.52;;
79204;SDS011;68632;47.512;19.104;2023-05-25T00:28:03;12.73;;;11.27;;
79204;SDS011;68632;47.512;19.104;2023-05-25T00:29:05;12.02;;;10.45;;
79204;SDS011;68632;47.512;19.104;2023-05-25T00:30:08;15.05;;;10.25;;
79204;SDS011;68632;47.512;19.104;2023-05-25T00:31:10;13.15;;;11.07;;
79204;SDS011;68632;47.512;19.104;2023-05-25T00:32:12;14.18;;;11.00;;
79204;SDS011;68632;47.512;19.104;2023-05-25T00:33:14;14.98;;;11.23;;
79204;SDS011;68632;47.512;19.104;2023-05-25T00:34:17;13.48;;;11.15;;
79204;SDS011;68632;47.512;19.104;2023-05-25T00:35:19;15.93;;;10.95;;
79204;SDS011;68632;47.512;19.104;2023-05-25T00:36:22;12.60;;;10.48;;
79204;SDS011;68632;47.512;19.104;2023-05-25T00:37:25;14.25;;;10.90;;
79204;SDS011;68632;47.512;19.104;2023-05-25T00:38:27;13.10;;;10.52;;
79204;SDS011;68632;47.512;19.104;2023-05-25T00:39:29;14.07;;;11.23;;
79204;SDS011;68632;47.512;19.104;2023-05-25T00:40:31;13.45;;;11.50;;
79204;SDS011;68632;47.512;19.104;2023-05-25T00:41:37;13.95;;;10.93;;
79204;SDS011;68632;47.512;19.104;2023-05-25T00:42:42;13.07;;;10.27;;
79204;SDS011;68632;47.512;19.104;2023-05-25T00:43:44;13.07;;;10.88;;
79204;SDS011;68632;47.512;19.104;2023-05-25T00:44:50;17.08;;;11.50;;
79204;SDS011;68632;47.512;19.104;2023-05-25T00:45:52;16.52;;;11.07;;
79204;SDS011;68632;47.512;19.104;2023-05-25T00:46:54;13.23;;;11.13;;
79204;SDS011;68632;47.512;19.104;2023-05-25T00:47:56;13.25;;;10.57;;
79204;SDS011;68632;47.512;19.104;2023-05-25T00:49:00;12.32;;;10.73;;
79204;SDS011;68632;47.512;19.104;2023-05-25T00:50:02;19.48;;;11.95;;
79204;SDS011;68632;47.512;19.104;2023-05-25T00:51:04;13.48;;;10.38;;
79204;SDS011;68632;47.512;19.104;2023-05-25T00:52:07;14.73;;;10.50;;
79204;SDS011;68632;47.512;19.104;2023-05-25T00:53:09;13.32;;;10.52;;
79204;SDS011;68632;47.512;19.104;2023-05-25T00:54:13;13.57;;;11.15;;
79204;SDS011;68632;47.512;19.104;2023-05-25T00:55:16;14.82;;;10.98;;
79204;SDS011;68632;47.512;19.104;2023-05-25T00:56:23;15.25;;;11.18;;
79204;SDS011;68632;47.512;19.104;2023-05-25T00:57:29;16.52;;;11.23;;
79204;SDS011;68632;47.512;19.104;2023-05-25T00:58:35;16.38;;;10.73;;
79204;SDS011;68632;47.512;19.104;2023-05-25T00:59:46;13.27;;;10.55;;
79204;SDS011;68632;47.512;19.104;2023-05-25T01:00:50;14.38;;;11.55;;
79204;SDS011;68632;47.512;19.104;2023-05-25T01:01:54;13.80;;;10.88;;
79204;SDS011;68632;47.512;19.104;2023-05-25T01:02:56;13.68;;;10.98;;
79204;SDS011;68632;47.512;19.104;2023-05-25T01:04:00;13.70;;;11.23;;
79204;SDS011;68632;47.512;19.104;2023-05-25T01:05:05;14.65;;;10.80;;
79204;SDS011;68632;47.512;19.104;2023-05-25T01:06:08;13.63;;;10.88;;
79204;SDS011;68632;47.512;19.104;2023-05-25T01:07:15;14.10;;;11.98;;
79204;SDS011;68632;47.512;19.104;2023-05-25T01:08:23;14.32;;;11.50;;
79204;SDS011;68632;47.512;19.104;2023-05-25T01:09:26;15.52;;;11.60;;
79204;SDS011;68632;47.512;19.104;2023-05-25T01:10:30;13.77;;;11.05;;
79204;SDS011;68632;47.512;19.104;2023-05-25T01:11:35;14.70;;;11.07;;
79204;SDS011;68632;47.512;19.104;2023-05-25T01:12:38;15.32;;;11.25;;
79204;SDS011;68632;47.512;19.104;2023-05-25T01:13:41;13.98;;;11.15;;
79204;SDS011;68632;47.512;19.104;2023-05-25T01:14:43;14.75;;;12.10;;
79204;SDS011;68632;47.512;19.104;2023-05-25T01:15:49;16.95;;;11.32;;
79204;SDS011;68632;47.512;19.104;2023-05-25T01:16:52;16.55;;;12.27;;
79204;SDS011;68632;47.512;19.104;2023-05-25T01:17:56;15.10;;;11.35;;
79204;SDS011;68632;47.512;19.104;2023-05-25T01:19:00;13.18;;;11.20;;
79204;SDS011;68632;47.512;19.104;2023-05-25T01:20:03;14.27;;;11.60;;
79204;SDS011;68632;47.512;19.104;2023-05-25T01:22:20;15.27;;;11.90;;
79204;SDS011;68632;47.512;19.104;2023-05-25T01:23:49;14.93;;;12.20;;
79204;SDS011;68632;47.512;19.104;2023-05-25T01:24:55;17.20;;;12.75;;
79204;SDS011;68632;47.512;19.104;2023-05-25T01:26:10;14.85;;;12.10;;
79204;SDS011;68632;47.512;19.104;2023-05-25T01:27:18;15.75;;;11.70;;
79204;SDS011;68632;47.512;19.104;2023-05-25T01:28:24;15.20;;;12.63;;
79204;SDS011;68632;47.512;19.104;2023-05-25T01:29:31;14.75;;;11.95;;
79204;SDS011;68632;47.512;19.104;2023-05-25T01:30:35;14.95;;;12.15;;
79204;SDS011;68632;47.512;19.104;2023-05-25T01:31:38;17.95;;;12.02;;
79204;SDS011;68632;47.512;19.104;2023-05-25T01:32:41;15.55;;;12.70;;
79204;SDS011;68632;47.512;19.104;2023-05-25T01:33:44;13.60;;;11.63;;
79204;SDS011;68632;47.512;19.104;2023-05-25T01:34:47;14.70;;;11.35;;
79204;SDS011;68632;47.512;19.104;2023-05-25T01:35:51;16.02;;;12.77;;
79204;SDS011;68632;47.512;19.104;2023-05-25T01:36:53;15.05;;;11.82;;
79204;SDS011;68632;47.512;19.104;2023-05-25T01:37:56;15.90;;;11.95;;
79204;SDS011;68632;47.512;19.104;2023-05-25T01:38:59;21.38;;;12.75;;
79204;SDS011;68632;47.512;19.104;2023-05-25T01:40:05;15.65;;;12.25;;
79204;SDS011;68632;47.512;19.104;2023-05-25T01:41:07;17.00;;;12.40;;
79204;SDS011;68632;47.512;19.104;2023-05-25T01:42:09;15.73;;;12.40;;
79204;SDS011;68632;47.512;19.104;2023-05-25T01:43:12;17.63;;;13.27;;
79204;SDS011;68632;47.512;19.104;2023-05-25T01:44:14;16.70;;;11.77;;
79204;SDS011;68632;47.512;19.104;2023-05-25T01:45:16;17.73;;;12.52;;
79204;SDS011;68632;47.512;19.104;2023-05-25T01:46:23;14.15;;;12.15;;
79204;SDS011;68632;47.512;19.104;2023-05-25T01:47:31;17.35;;;12.05;;
79204;SDS011;68632;47.512;19.104;2023-05-25T01:51:11;16.77;;;12.48;;
79204;SDS011;68632;47.512;19.104;2023-05-25T01:52:21;16.48;;;12.18;;
79204;SDS011;68632;47.512;19.104;2023-05-25T01:53:32;17.48;;;12.00;;
79204;SDS011;68632;47.512;19.104;2023-05-25T01:54:37;16.33;;;11.80;;
79204;SDS011;68632;47.512;19.104;2023-05-25T01:56:45;14.13;;;11.00;;
79204;SDS011;68632;47.512;19.104;2023-05-25T01:57:49;17.83;;;12.52;;
79204;SDS011;68632;47.512;19.104;2023-05-25T01:58:53;15.02;;;11.55;;
79204;SDS011;68632;47.512;19.104;2023-05-25T01:59:56;16.95;;;12.80;;
79204;SDS011;68632;47.512;19.104;2023-05-25T02:01:01;14.80;;;12.57;;
79204;SDS011;68632;47.512;19.104;2023-05-25T02:02:03;16.17;;;13.27;;
79204;SDS011;68632;47.512;19.104;2023-05-25T02:03:06;16.70;;;13.20;;
79204;SDS011;68632;47.512;19.104;2023-05-25T02:04:10;14.00;;;11.77;;
79204;SDS011;68632;47.512;19.104;2023-05-25T02:05:13;17.42;;;13.48;;
79204;SDS011;68632;47.512;19.104;2023-05-25T02:06:15;18.08;;;13.30;;
79204;SDS011;68632;47.512;19.104;2023-05-25T02:07:18;16.98;;;13.15;;
79204;SDS011;68632;47.512;19.104;2023-05-25T02:08:20;16.83;;;12.50;;
79204;SDS011;68632;47.512;19.104;2023-05-25T02:09:22;15.68;;;12.65;;
79204;SDS011;68632;47.512;19.104;2023-05-25T02:10:24;17.52;;;12.90;;
79204;SDS011;68632;47.512;19.104;2023-05-25T02:11:27;17.38;;;13.30;;
79204;SDS011;68632;47.512;19.104;2023-05-25T02:12:29;16.45;;;12.18;;
79204;SDS011;68632;47.512;19.104;2023-05-25T02:13:31;15.43;;;12.05;;
79204;SDS011;68632;47.512;19.104;2023-05-25T02:14:33;22.30;;;13.80;;
79204;SDS011;68632;47.512;19.104;2023-05-25T02:15:36;19.38;;;13.23;;
79204;SDS011;68632;47.512;19.104;2023-05-25T02:16:38;14.63;;;12.10;;
79204;SDS011;68632;47.512;19.104;2023-05-25T02:17:40;15.52;;;11.90;;
79204;SDS011;68632;47.512;19.104;2023-05-25T02:18:44;15.13;;;12.57;;
79204;SDS011;68632;47.512;19.104;2023-05-25T02:19:46;16.42;;;13.05;;
79204;SDS011;68632;47.512;19.104;2023-05-25T02:20:50;16.02;;;12.15;;
79204;SDS011;68632;47.512;19.104;2023-05-25T02:21:52;16.17;;;12.98;;
79204;SDS011;68632;47.512;19.104;2023-05-25T02:22:54;16.10;;;13.07;;
79204;SDS011;68632;47.512;19.104;2023-05-25T02:23:56;18.75;;;13.20;;
79204;SDS011;68632;47.512;19.104;2023-05-25T02:24:59;16.65;;;13.00;;
79204;SDS011;68632;47.512;19.104;2023-05-25T02:26:01;16.80;;;13.63;;
79204;SDS011;68632;47.512;19.104;2023-05-25T02:27:04;16.52;;;13.05;;
79204;SDS011;68632;47.512;19.104;2023-05-25T02:28:06;17.27;;;12.70;;
79204;SDS011;68632;47.512;19.104;2023-05-25T02:29:09;17.13;;;13.43;;
79204;SDS011;68632;47.512;19.104;2023-05-25T02:30:12;16.00;;;13.43;;
79204;SDS011;68632;47.512;19.104;2023-05-25T02:31:14;16.98;;;13.40;;
79204;SDS011;68632;47.512;19.104;2023-05-25T02:32:17;17.00;;;13.23;;
79204;SDS011;68632;47.512;19.104;2023-05-25T02:33:19;15.27;;;11.43;;
79204;SDS011;68632;47.512;19.104;2023-05-25T02:34:21;15.40;;;12.48;;
79204;SDS011;68632;47.512;19.104;2023-05-25T02:35:23;16.08;;;12.57;;
79204;SDS011;68632;47.512;19.104;2023-05-25T02:36:25;18.92;;;13.45;;
79204;SDS011;68632;47.512;19.104;2023-05-25T02:37:29;16.10;;;12.88;;
79204;SDS011;68632;47.512;19.104;2023-05-25T02:38:31;19.75;;;13.82;;
79204;SDS011;68632;47.512;19.104;2023-05-25T02:39:33;15.80;;;12.65;;
79204;SDS011;68632;47.512;19.104;2023-05-25T02:40:35;18.63;;;13.93;;
79204;SDS011;68632;47.512;19.104;2023-05-25T02:41:37;21.70;;;12.52;;
79204;SDS011;68632;47.512;19.104;2023-05-25T02:42:40;16.88;;;13.27;;
79204;SDS011;68632;47.512;19.104;2023-05-25T02:43:42;15.35;;;12.45;;
79204;SDS011;68632;47.512;19.104;2023-05-25T02:44:44;17.45;;;13.20;;
79204;SDS011;68632;47.512;19.104;2023-05-25T02:46:51;19.88;;;13.77;;
79204;SDS011;68632;47.512;19.104;2023-05-25T02:47:53;18.63;;;14.95;;
79204;SDS011;68632;47.512;19.104;2023-05-25T02:48:55;19.35;;;13.68;;
79204;SDS011;68632;47.512;19.104;2023-05-25T02:49:59;15.32;;;12.43;;
79204;SDS011;68632;47.512;19.104;2023-05-25T02:51:01;17.13;;;13.90;;
79204;SDS011;68632;47.512;19.104;2023-05-25T02:52:04;17.13;;;13.18;;
79204;SDS011;68632;47.512;19.104;2023-05-25T02:53:07;18.25;;;13.90;;
79204;SDS011;68632;47.512;19.104;2023-05-25T02:54:09;18.60;;;13.48;;
79204;SDS011;68632;47.512;19.104;2023-05-25T02:55:11;17.67;;;13.80;;
79204;SDS011;68632;47.512;19.104;2023-05-25T02:56:16;17.80;;;14.18;;
79204;SDS011;68632;47.512;19.104;2023-05-25T02:57:18;18.27;;;13.30;;
79204;SDS011;68632;47.512;19.104;2023-05-25T02:58:20;19.20;;;13.73;;
79204;SDS011;68632;47.512;19.104;2023-05-25T02:59:23;16.50;;;13.68;;
79204;SDS011;68632;47.512;19.104;2023-05-25T03:00:28;18.95;;;14.70;;
79204;SDS011;68632;47.512;19.104;2023-05-25T03:01:30;19.02;;;13.70;;
79204;SDS011;68632;47.512;19.104;2023-05-25T03:02:32;18.70;;;13.80;;
79204;SDS011;68632;47.512;19.104;2023-05-25T03:03:35;18.40;;;13.07;;
79204;SDS011;68632;47.512;19.104;2023-05-25T03:04:38;20.75;;;14.50;;
79204;SDS011;68632;47.512;19.104;2023-05-25T03:05:40;17.85;;;14.25;;
79204;SDS011;68632;47.512;19.104;2023-05-25T03:06:42;22.98;;;14.15;;
79204;SDS011;68632;47.512;19.104;2023-05-25T03:07:46;19.05;;;13.75;;
79204;SDS011;68632;47.512;19.104;2023-05-25T03:08:48;16.98;;;13.13;;
79204;SDS011;68632;47.512;19.104;2023-05-25T03:09:51;17.90;;;14.18;;
79204;SDS011;68632;47.512;19.104;2023-05-25T03:10:53;19.60;;;13.95;;
79204;SDS011;68632;47.512;19.104;2023-05-25T03:11:55;19.55;;;13.02;;
79204;SDS011;68632;47.512;19.104;2023-05-25T03:12:58;18.45;;;13.52;;
79204;SDS011;68632;47.512;19.104;2023-05-25T03:14:00;20.05;;;13.48;;
79204;SDS011;68632;47.512;19.104;2023-05-25T03:15:03;22.33;;;13.90;;
79204;SDS011;68632;47.512;19.104;2023-05-25T03:16:06;19.65;;;14.52;;
79204;SDS011;68632;47.512;19.104;2023-05-25T03:17:08;17.05;;;13.00;;
79204;SDS011;68632;47.512;19.104;2023-05-25T03:18:10;16.52;;;13.55;;
79204;SDS011;68632;47.512;19.104;2023-05-25T03:19:12;17.80;;;14.10;;
79204;SDS011;68632;47.512;19.104;2023-05-25T03:20:15;19.15;;;13.73;;
79204;SDS011;68632;47.512;19.104;2023-05-25T03:21:17;21.42;;;14.98;;
79204;SDS011;68632;47.512;19.104;2023-05-25T03:22:19;20.27;;;13.40;;
79204;SDS011;68632;47.512;19.104;2023-05-25T03:23:21;18.33;;;13.60;;
79204;SDS011;68632;47.512;19.104;2023-05-25T03:24:24;18.48;;;13.43;;
79204;SDS011;68632;47.512;19.104;2023-05-25T03:25:27;19.63;;;12.68;;
79204;SDS011;68632;47.512;19.104;2023-05-25T03:26:29;22.17;;;14.30;;
79204;SDS011;68632;47.512;19.104;2023-05-25T03:27:33;19.17;;;13.88;;
79204;SDS011;68632;47.512;19.104;2023-05-25T03:28:35;18.63;;;13.43;;
79204;SDS011;68632;47.512;19.104;2023-05-25T03:29:37;19.15;;;13.50;;
79204;SDS011;68632;47.512;19.104;2023-05-25T03:30:39;18.25;;;13.65;;
79204;SDS011;68632;47.512;19.104;2023-05-25T03:31:41;17.20;;;12.50;;
79204;SDS011;68632;47.512;19.104;2023-05-25T03:32:43;18.48;;;13.27;;
79204;SDS011;68632;47.512;19.104;2023-05-25T03:33:46;19.38;;;13.52;;
79204;SDS011;68632;47.512;19.104;2023-05-25T03:34:48;20.00;;;13.77;;
79204;SDS011;68632;47.512;19.104;2023-05-25T03:35:50;21.73;;;14.95;;
79204;SDS011;68632;47.512;19.104;2023-05-25T03:36:52;19.73;;;13.52;;
79204;SDS011;68632;47.512;19.104;2023-05-25T03:37:55;18.67;;;13.35;;
79204;SDS011;68632;47.512;19.104;2023-05-25T03:38:58;18.23;;;14.23;;
79204;SDS011;68632;47.512;19.104;2023-05-25T03:40:00;20.73;;;13.73;;
79204;SDS011;68632;47.512;19.104;2023-05-25T03:41:02;21.17;;;14.40;;
79204;SDS011;68632;47.512;19.104;2023-05-25T03:42:05;18.10;;;14.10;;
79204;SDS011;68632;47.512;19.104;2023-05-25T03:43:07;18.95;;;13.95;;
79204;SDS011;68632;47.512;19.104;2023-05-25T03:44:09;18.02;;;13.40;;
79204;SDS011;68632;47.512;19.104;2023-05-25T03:45:11;19.55;;;14.52;;
79204;SDS011;68632;47.512;19.104;2023-05-25T03:46:14;18.83;;;13.82;;
79204;SDS011;68632;47.512;19.104;2023-05-25T03:47:16;18.58;;;14.18;;
79204;SDS011;68632;47.512;19.104;2023-05-25T03:48:18;18.30;;;14.20;;
79204;SDS011;68632;47.512;19.104;2023-05-25T03:49:20;18.92;;;14.30;;
79204;SDS011;68632;47.512;19.104;2023-05-25T03:50:22;19.67;;;13.93;;
79204;SDS011;68632;47.512;19.104;2023-05-25T03:51:24;19.45;;;13.95;;
79204;SDS011;68632;47.512;19.104;2023-05-25T03:52:27;20.38;;;13.65;;
79204;SDS011;68632;47.512;19.104;2023-05-25T03:53:29;18.75;;;14.07;;
79204;SDS011;68632;47.512;19.104;2023-05-25T03:54:32;17.48;;;14.10;;
79204;SDS011;68632;47.512;19.104;2023-05-25T03:55:34;17.95;;;13.50;;
79204;SDS011;68632;47.512;19.104;2023-05-25T03:56:37;17.27;;;14.00;;
79204;SDS011;68632;47.512;19.104;2023-05-25T03:57:39;18.17;;;13.73;;
79204;SDS011;68632;47.512;19.104;2023-05-25T03:58:42;18.52;;;14.73;;
79204;SDS011;68632;47.512;19.104;2023-05-25T03:59:44;22.67;;;13.77;;
79204;SDS011;68632;47.512;19.104;2023-05-25T04:00:46;17.70;;;13.40;;
79204;SDS011;68632;47.512;19.104;2023-05-25T04:01:51;24.38;;;14.40;;
79204;SDS011;68632;47.512;19.104;2023-05-25T04:02:53;21.85;;;14.68;;
79204;SDS011;68632;47.512;19.104;2023-05-25T04:03:55;17.38;;;13.85;;
79204;SDS011;68632;47.512;19.104;2023-05-25T04:04:58;17.65;;;13.70;;
79204;SDS011;68632;47.512;19.104;2023-05-25T04:06:00;20.35;;;13.90;;
79204;SDS011;68632;47.512;19.104;2023-05-25T04:07:02;18.20;;;14.18;;
79204;SDS011;68632;47.512;19.104;2023-05-25T04:08:05;17.70;;;13.32;;
79204;SDS011;68632;47.512;19.104;2023-05-25T04:09:09;18.73;;;14.07;;
79204;SDS011;68632;47.512;19.104;2023-05-25T04:10:11;18.15;;;13.00;;
79204;SDS011;68632;47.512;19.104;2023-05-25T04:11:13;17.20;;;13.20;;
79204;SDS011;68632;47.512;19.104;2023-05-25T04:12:15;17.50;;;12.13;;
79204;SDS011;68632;47.512;19.104;2023-05-25T04:13:17;18.45;;;15.05;;
79204;SDS011;68632;47.512;19.104;2023-05-25T04:14:19;18.58;;;12.65;;
79204;SDS011;68632;47.512;19.104;2023-05-25T04:15:22;18.25;;;14.55;;
79204;SDS011;68632;47.512;19.104;2023-05-25T04:16:24;17.92;;;13.50;;
79204;SDS011;68632;47.512;19.104;2023-05-25T04:17:27;18.65;;;12.93;;
79204;SDS011;68632;47.512;19.104;2023-05-25T04:18:29;19.48;;;13.30;;
79204;SDS011;68632;47.512;19.104;2023-05-25T04:19:31;19.38;;;13.18;;
79204;SDS011;68632;47.512;19.104;2023-05-25T04:20:34;18.77;;;13.20;;
79204;SDS011;68632;47.512;19.104;2023-05-25T04:21:36;16.50;;;12.68;;
79204;SDS011;68632;47.512;19.104;2023-05-25T04:22:38;19.48;;;14.20;;
79204;SDS011;68632;47.512;19.104;2023-05-25T04:23:40;16.52;;;13.38;;
79204;SDS011;68632;47.512;19.104;2023-05-25T04:24:44;22.38;;;14.05;;
79204;SDS011;68632;47.512;19.104;2023-05-25T04:25:46;18.92;;;13.02;;
79204;SDS011;68632;47.512;19.104;2023-05-25T04:26:51;19.52;;;13.65;;
79204;SDS011;68632;47.512;19.104;2023-05-25T04:27:53;17.73;;;11.98;;
79204;SDS011;68632;47.512;19.104;2023-05-25T04:28:57;18.88;;;12.70;;
79204;SDS011;68632;47.512;19.104;2023-05-25T04:29:59;17.75;;;13.98;;
79204;SDS011;68632;47.512;19.104;2023-05-25T04:31:02;20.02;;;12.68;;
79204;SDS011;68632;47.512;19.104;2023-05-25T04:32:06;18.10;;;12.85;;
79204;SDS011;68632;47.512;19.104;2023-05-25T04:33:10;16.92;;;12.35;;
79204;SDS011;68632;47.512;19.104;2023-05-25T04:34:12;14.90;;;12.20;;
79204;SDS011;68632;47.512;19.104;2023-05-25T04:35:15;17.92;;;13.35;;
79204;SDS011;68632;47.512;19.104;2023-05-25T04:36:21;18.33;;;12.40;;
79204;SDS011;68632;47.512;19.104;2023-05-25T04:37:24;18.60;;;13.25;;
79204;SDS011;68632;47.512;19.104;2023-05-25T04:38:31;16.63;;;12.55;;
79204;SDS011;68632;47.512;19.104;2023-05-25T04:39:34;16.02;;;11.38;;
79204;SDS011;68632;47.512;19.104;2023-05-25T04:40:36;15.30;;;12.20;;
79204;SDS011;68632;47.512;19.104;2023-05-25T04:41:38;17.38;;;13.57;;
79204;SDS011;68632;47.512;19.104;2023-05-25T04:42:40;14.50;;;11.93;;
79204;SDS011;68632;47.512;19.104;2023-05-25T04:43:42;18.83;;;13.05;;
79204;SDS011;68632;47.512;19.104;2023-05-25T04:45:07;19.63;;;12.73;;
79204;SDS011;68632;47.512;19.104;2023-05-25T04:46:11;18.90;;;12.52;;
79204;SDS011;68632;47.512;19.104;2023-05-25T04:47:14;16.17;;;11.70;;
79204;SDS011;68632;47.512;19.104;2023-05-25T04:48:17;16.95;;;12.05;;
79204;SDS011;68632;47.512;19.104;2023-05-25T04:49:20;15.57;;;12.35;;
79204;SDS011;68632;47.512;19.104;2023-05-25T04:50:22;17.73;;;12.38;;
79204;SDS011;68632;47.512;19.104;2023-05-25T04:51:25;16.25;;;11.07;;
79204;SDS011;68632;47.512;19.104;2023-05-25T04:52:27;15.18;;;11.48;;
79204;SDS011;68632;47.512;19.104;2023-05-25T04:53:29;14.75;;;12.20;;
79204;SDS011;68632;47.512;19.104;2023-05-25T04:54:33;14.77;;;11.23;;
79204;SDS011;68632;47.512;19.104;2023-05-25T04:55:35;14.20;;;12.02;;
79204;SDS011;68632;47.512;19.104;2023-05-25T04:56:37;15.55;;;11.38;;
79204;SDS011;68632;47.512;19.104;2023-05-25T04:57:39;14.90;;;11.05;;
79204;SDS011;68632;47.512;19.104;2023-05-25T04:58:42;16.80;;;12.23;;
79204;SDS011;68632;47.512;19.104;2023-05-25T04:59:44;16.92;;;12.10;;
79204;SDS011;68632;47.512;19.104;2023-05-25T05:00:46;14.77;;;11.55;;
79204;SDS011;68632;47.512;19.104;2023-05-25T05:01:50;18.98;;;12.05;;
79204;SDS011;68632;47.512;19.104;2023-05-25T05:02:53;15.48;;;11.48;;
79204;SDS011;68632;47.512;19.104;2023-05-25T05:03:59;15.60;;;11.82;;
79204;SDS011;68632;47.512;19.104;2023-05-25T05:05:01;15.15;;;11.80;;
79204;SDS011;68632;47.512;19.104;2023-05-25T05:06:04;14.45;;;12.25;;
79204;SDS011;68632;47.512;19.104;2023-05-25T05:07:07;14.57;;;11.70;;
79204;SDS011;68632;47.512;19.104;2023-05-25T05:08:09;19.13;;;11.25;;
79204;SDS011;68632;47.512;19.104;2023-05-25T05:09:12;13.98;;;12.10;;
79204;SDS011;68632;47.512;19.104;2023-05-25T05:10:14;15.35;;;11.88;;
79204;SDS011;68632;47.512;19.104;2023-05-25T05:11:16;14.43;;;11.80;;
79204;SDS011;68632;47.512;19.104;2023-05-25T05:12:18;14.23;;;11.65;;
79204;SDS011;68632;47.512;19.104;2023-05-25T05:13:21;13.75;;;11.13;;
79204;SDS011;68632;47.512;19.104;2023-05-25T05:14:23;16.30;;;11.50;;
79204;SDS011;68632;47.512;19.104;2023-05-25T05:15:25;15.00;;;12.02;;
79204;SDS011;68632;47.512;19.104;2023-05-25T05:16:27;17.63;;;11.75;;
79204;SDS011;68632;47.512;19.104;2023-05-25T05:17:34;16.25;;;12.70;;
79204;SDS011;68632;47.512;19.104;2023-05-25T05:18:37;16.08;;;12.20;;
79204;SDS011;68632;47.512;19.104;2023-05-25T05:19:39;17.25;;;12.45;;
79204;SDS011;68632;47.512;19.104;2023-05-25T05:20:41;14.30;;;11.80;;
79204;SDS011;68632;47.512;19.104;2023-05-25T05:21:43;17.92;;;11.60;;
79204;SDS011;68632;47.512;19.104;2023-05-25T05:22:45;17.42;;;12.80;;
79204;SDS011;68632;47.512;19.104;2023-05-25T05:23:48;14.93;;;12.38;;
79204;SDS011;68632;47.512;19.104;2023-05-25T05:24:50;16.77;;;13.05;;
79204;SDS011;68632;47.512;19.104;2023-05-25T05:25:52;16.40;;;11.90;;
79204;SDS011;68632;47.512;19.104;2023-05-25T05:26:54;17.10;;;13.13;;
79204;SDS011;68632;47.512;19.104;2023-05-25T05:28:00;17.10;;;13.52;;
79204;SDS011;68632;47.512;19.104;2023-05-25T05:29:02;16.23;;;12.30;;
79204;SDS011;68632;47.512;19.104;2023-05-25T05:30:05;14.95;;;12.35;;
79204;SDS011;68632;47.512;19.104;2023-05-25T05:31:08;16.38;;;12.13;;
79204;SDS011;68632;47.512;19.104;2023-05-25T05:32:10;20.10;;;12.70;;
79204;SDS011;68632;47.512;19.104;2023-05-25T05:33:12;16.10;;;11.82;;
79204;SDS011;68632;47.512;19.104;2023-05-25T05:34:15;17.42;;;11.85;;
79204;SDS011;68632;47.512;19.104;2023-05-25T05:35:17;18.42;;;12.80;;
79204;SDS011;68632;47.512;19.104;2023-05-25T05:36:19;15.50;;;12.52;;
79204;SDS011;68632;47.512;19.104;2023-05-25T05:37:22;16.00;;;12.20;;
79204;SDS011;68632;47.512;19.104;2023-05-25T05:38:24;16.95;;;11.95;;
79204;SDS011;68632;47.512;19.104;2023-05-25T05:39:26;16.33;;;12.65;;
79204;SDS011;68632;47.512;19.104;2023-05-25T05:40:29;17.27;;;12.10;;
79204;SDS011;68632;47.512;19.104;2023-05-25T05:41:31;15.48;;;12.27;;
79204;SDS011;68632;47.512;19.104;2023-05-25T05:42:33;16.98;;;12.38;;
79204;SDS011;68632;47.512;19.104;2023-05-25T05:43:36;17.45;;;13.13;;
79204;SDS011;68632;47.512;19.104;2023-05-25T05:44:40;17.70;;;11.27;;
79204;SDS011;68632;47.512;19.104;2023-05-25T05:45:42;17.98;;;13.15;;
79204;SDS011;68632;47.512;19.104;2023-05-25T05:46:45;15.80;;;11.85;;
79204;SDS011;68632;47.512;19.104;2023-05-25T05:47:47;18.55;;;13.57;;
79204;SDS011;68632;47.512;19.104;2023-05-25T05:48:49;16.67;;;12.48;;
79204;SDS011;68632;47.512;19.104;2023-05-25T05:49:51;14.73;;;11.90;;
79204;SDS011;68632;47.512;19.104;2023-05-25T05:50:53;13.52;;;11.95;;
79204;SDS011;68632;47.512;19.104;2023-05-25T05:51:56;15.57;;;12.55;;
79204;SDS011;68632;47.512;19.104;2023-05-25T05:52:58;16.33;;;12.02;;
79204;SDS011;68632;47.512;19.104;2023-05-25T05:54:01;15.85;;;11.38;;
79204;SDS011;68632;47.512;19.104;2023-05-25T05:55:03;17.67;;;12.45;;
79204;SDS011;68632;47.512;19.104;2023-05-25T05:56:12;16.77;;;12.07;;
79204;SDS011;68632;47.512;19.104;2023-05-25T05:57:17;14.40;;;11.38;;
79204;SDS011;68632;47.512;19.104;2023-05-25T05:58:20;15.10;;;11.57;;
79204;SDS011;68632;47.512;19.104;2023-05-25T05:59:22;13.98;;;11.07;;
79204;SDS011;68632;47.512;19.104;2023-05-25T06:00:24;13.43;;;11.25;;
79204;SDS011;68632;47.512;19.104;2023-05-25T06:01:27;12.77;;;10.73;;
79204;SDS011;68632;47.512;19.104;2023-05-25T06:02:29;14.48;;;10.70;;
79204;SDS011;68632;47.512;19.104;2023-05-25T06:03:31;14.85;;;11.68;;
79204;SDS011;68632;47.512;19.104;2023-05-25T06:04:33;13.98;;;11.75;;
79204;SDS011;68632;47.512;19.104;2023-05-25T06:05:36;13.80;;;11.02;;
79204;SDS011;68632;47.512;19.104;2023-05-25T06:06:38;13.98;;;11.80;;
79204;SDS011;68632;47.512;19.104;2023-05-25T06:08:44;13.15;;;11.02;;
79204;SDS011;68632;47.512;19.104;2023-05-25T06:09:47;12.88;;;10.68;;
79204;SDS011;68632;47.512;19.104;2023-05-25T06:10:49;14.23;;;11.55;;